This is the latest recevied weather packets stored in our database for station/object N0YWB. If no packets are shown the sender has not sent any weather packets the latest 10 day(s).
| Time | Temp. | Humidity | Pressure | Rain* | Wind** | Luminosity | Snow |
|---|---|---|---|---|---|---|---|
| 1778159716 | 9.44° C | 71% | 1015.6 hPa | 0 mm | - | - | - |
| 1778157924 | 7.22° C | 76% | 1015.5 hPa | 0 mm | - | - | - |
| 1778152529 | 2.22° C | 95% | 1016 hPa | 0 mm | - | - | - |
| 1778141716 | -0.56° C | 99% | 1017.4 hPa | 0 mm | - | - | - |
| 1778141119 | -0.56° C | 99% | 1017.4 hPa | 0 mm | - | - | - |
| 1778136322 | 0.56° C | 98% | 1018.2 hPa | 0 mm | - | - | - |
| 1778135127 | 0.56° C | 99% | 1018.4 hPa | 0 mm | - | - | - |
| 1778132719 | 0.56° C | 96% | 1018.5 hPa | 0 mm | - | - | - |
| 1778130324 | 1.67° C | 96% | 1018.4 hPa | 0 mm | - | - | - |
| 1778126125 | 2.78° C | 85% | 1018.3 hPa | 0 mm | - | - | - |
| 1778119558 | 6.67° C | 65% | 1018.4 hPa | 0 mm | - | - | - |
| 1778118920 | 7.78° C | 57% | 1018.4 hPa | 0 mm | - | - | - |
| 1778114123 | 11.67° C | 47% | 1018.1 hPa | 0 mm | - | - | - |
| 1778113525 | 11.67° C | 47% | 1018.2 hPa | 0 mm | - | - | - |
| 1778108120 | 12.78° C | 45% | 1018.5 hPa | 0 mm | - | - | - |
| 1778107523 | 13.89° C | 43% | 1018.3 hPa | 0 mm | - | - | - |
| 1778101525 | 13.33° C | 45% | 1018.8 hPa | 0 mm | - | - | - |
| 1778099117 | 12.78° C | 46% | 1019.2 hPa | 0 mm | - | - | - |
| 1778096130 | 13.33° C | 49% | 1019.4 hPa | 0 mm | - | - | - |
| 1778094917 | 12.22° C | 48% | 1019.5 hPa | 0 mm | - | - | - |
| 1778093165 | 11.67° C | 48% | 1019.5 hPa | 0 mm | - | - | - |
| 1778089517 | 11.67° C | 51% | 1019.7 hPa | 0 mm | - | - | - |
| 1778086538 | 11.11° C | 50% | 1019.9 hPa | 0 mm | - | - | - |
| 1778085323 | 12.78° C | 47% | 1019.6 hPa | 0 mm | - | - | - |
| 1778082936 | 11.11° C | 50% | 1019.6 hPa | 0 mm | - | - | - |
* Rain latest hour (hover to see other rain measurements)
** Current wind speed in m/s (hover to see current wind gust speed)